Time;durP1;ratioP1;P1;durP2;ratioP2;P2;SDS_P1;SDS_P2;PMS_P1;PMS_P2;Temp;Humidity;BMP_temperature;BMP_pressure;BME280_temperature;BME280_humidity;BME280_pressure;Samples;Min_cycle;Max_cycle;Signal;HPM_P1;HPM_P2
2023/08/11 00:00:47;;;;;;;7.45;6.60;;;;;;;17.81;81.90;101966.13;5015168;28;20501;-66
2023/08/11 00:03:13;;;;;;;8.40;7.03;;;;;;;17.78;81.79;101960.31;5022073;28;20398;-66
2023/08/11 00:05:39;;;;;;;10.27;6.85;;;;;;;17.75;81.89;101960.69;5025423;28;20026;-66
2023/08/11 00:08:08;;;;;;;11.10;6.82;;;;;;;17.74;82.14;101954.50;5015670;28;20171;-66
2023/08/11 00:10:34;;;;;;;10.80;7.70;;;;;;;17.70;82.10;101955.91;5019427;28;20018;-66
2023/08/11 00:13:00;;;;;;;9.45;7.53;;;;;;;17.73;82.58;101952.84;5013645;28;20398;-66
2023/08/11 00:15:28;;;;;;;10.50;7.22;;;;;;;17.80;82.08;101956.41;5024095;28;20036;-66
2023/08/11 00:17:53;;;;;;;11.20;8.27;;;;;;;17.82;81.90;101962.44;5021497;28;20053;-66
2023/08/11 00:20:19;;;;;;;12.73;7.60;;;;;;;17.83;81.51;101956.03;5015987;28;20122;-66
2023/08/11 00:22:45;;;;;;;12.50;7.70;;;;;;;17.84;81.59;101956.84;5031071;28;20461;-66
2023/08/11 00:25:10;;;;;;;9.35;7.53;;;;;;;17.88;81.58;101955.44;5029321;28;20030;-66
2023/08/11 00:27:35;;;;;;;9.13;8.23;;;;;;;17.91;80.98;101953.22;5023570;28;20516;-66
2023/08/11 00:30:01;;;;;;;9.93;7.65;;;;;;;17.91;80.85;101953.22;5018030;28;20029;-66
2023/08/11 00:32:26;;;;;;;13.45;8.38;;;;;;;17.86;80.74;101949.44;5022085;28;20025;-66
2023/08/11 00:34:51;;;;;;;12.02;8.20;;;;;;;17.92;80.76;101951.34;5014406;28;20021;-66
2023/08/11 00:37:17;;;;;;;11.70;8.82;;;;;;;17.82;80.79;101954.38;5024289;28;20029;-66
2023/08/11 00:39:42;;;;;;;11.73;7.82;;;;;;;17.86;80.75;101952.94;5026784;28;20014;-66
2023/08/11 00:42:07;;;;;;;8.90;7.75;;;;;;;17.82;81.01;101945.47;5021119;28;20026;-66
2023/08/11 00:44:32;;;;;;;11.27;8.18;;;;;;;17.88;80.50;101955.44;5021102;28;20108;-66
2023/08/11 00:46:58;;;;;;;14.32;8.70;;;;;;;17.92;80.58;101948.66;5024712;28;20030;-66
2023/08/11 00:49:24;;;;;;;9.50;8.40;;;;;;;17.90;80.49;101946.16;5021801;28;20097;-66
2023/08/11 00:51:50;;;;;;;9.20;8.23;;;;;;;17.83;80.29;101936.38;5020508;28;20041;-66
2023/08/11 00:54:16;;;;;;;11.68;9.02;;;;;;;17.86;80.40;101927.94;5025522;28;20566;-66
2023/08/11 00:56:44;;;;;;;11.68;9.43;;;;;;;17.86;80.24;101936.81;5025441;28;20031;-66
2023/08/11 00:59:11;;;;;;;14.82;9.52;;;;;;;17.85;80.29;101929.78;5011897;28;20474;-66
2023/08/11 01:01:37;;;;;;;11.13;9.50;;;;;;;17.89;79.79;101923.00;5026228;28;20017;-66
2023/08/11 01:04:04;;;;;;;13.90;10.18;;;;;;;17.87;79.75;101918.84;5017843;28;20426;-66
2023/08/11 01:06:39;;;;;;;12.30;10.05;;;;;;;17.85;79.72;101920.91;5025553;28;20502;-66
2023/08/11 01:09:28;;;;;;;16.30;10.20;;;;;;;17.85;79.54;101928.97;5017751;28;20029;-66
2023/08/11 01:12:12;;;;;;;14.25;10.75;;;;;;;17.85;79.48;101926.28;5018979;28;20026;-66
2023/08/11 01:14:53;;;;;;;13.02;10.20;;;;;;;17.82;79.21;101919.44;5026547;28;20025;-66
2023/08/11 01:17:19;;;;;;;17.40;11.32;;;;;;;17.82;79.08;101915.91;5019266;28;20040;-66
2023/08/11 01:19:45;;;;;;;12.52;11.00;;;;;;;17.81;79.05;101915.09;5022795;28;20483;-66
2023/08/11 01:22:16;;;;;;;17.42;11.55;;;;;;;17.82;79.01;101914.06;5022850;28;20456;-66
2023/08/11 01:24:43;;;;;;;18.33;11.75;;;;;;;17.78;78.85;101911.94;5015615;28;20104;-66
2023/08/11 01:27:08;;;;;;;13.68;10.93;;;;;;;17.80;79.05;101908.03;5022330;28;20033;-66
2023/08/11 01:29:34;;;;;;;13.63;11.50;;;;;;;17.80;78.52;101905.34;5024788;28;20076;-66
2023/08/11 01:31:59;;;;;;;17.25;11.90;;;;;;;17.79;78.47;101903.69;5024925;28;20029;-66
2023/08/11 01:34:25;;;;;;;15.05;12.07;;;;;;;17.78;78.71;101903.88;5018623;28;20033;-66
2023/08/11 01:37:14;;;;;;;15.02;12.30;;;;;;;17.78;78.73;101901.19;5022076;28;20029;-66
2023/08/11 01:39:39;;;;;;;15.55;11.65;;;;;;;17.80;78.62;101899.97;5021039;28;20083;-66
2023/08/11 01:42:05;;;;;;;15.90;12.10;;;;;;;17.79;78.53;101911.75;5025745;28;20043;-66
2023/08/11 01:44:32;;;;;;;13.70;12.07;;;;;;;17.73;78.38;101906.31;5021628;28;20017;-66
2023/08/11 01:46:58;;;;;;;17.00;13.05;;;;;;;17.72;78.44;101910.03;5018818;28;20026;-66
2023/08/11 01:49:25;;;;;;;15.93;12.55;;;;;;;17.72;78.82;101915.41;5012984;28;20033;-66
2023/08/11 01:51:51;;;;;;;16.10;11.75;;;;;;;17.74;78.78;101908.81;5019232;28;20022;-66
2023/08/11 01:54:16;;;;;;;14.90;13.35;;;;;;;17.73;78.81;101915.22;5023864;28;20025;-66
2023/08/11 01:56:44;;;;;;;17.65;13.27;;;;;;;17.54;79.34;101908.56;5017884;28;20466;-66
2023/08/11 01:59:15;;;;;;;15.70;12.75;;;;;;;17.59;79.53;101906.13;5020948;28;20025;-66
2023/08/11 02:01:41;;;;;;;18.70;13.18;;;;;;;17.56;79.72;101905.69;5022460;28;20041;-66
2023/08/11 02:04:08;;;;;;;14.98;12.98;;;;;;;17.58;79.61;101899.09;5022871;28;20018;-66
2023/08/11 02:06:35;;;;;;;17.55;13.25;;;;;;;17.57;79.71;101897.44;5024608;28;20068;-66
2023/08/11 02:09:00;;;;;;;19.73;13.57;;;;;;;17.56;79.65;101895.78;5018739;28;20100;-66
2023/08/11 02:11:26;;;;;;;21.88;13.57;;;;;;;17.54;79.63;101892.44;5027603;28;20105;-66
2023/08/11 02:13:51;;;;;;;15.35;13.73;;;;;;;17.52;80.05;101891.81;5015975;28;20108;-66
2023/08/11 02:16:16;;;;;;;17.55;13.35;;;;;;;17.53;79.96;101892.66;5021889;28;20033;-66
2023/08/11 02:18:41;;;;;;;16.48;13.70;;;;;;;17.50;79.99;101893.84;5023829;28;20541;-66
2023/08/11 02:21:07;;;;;;;16.85;13.93;;;;;;;17.51;79.64;101889.31;5023608;28;20030;-66
2023/08/11 02:23:33;;;;;;;18.50;13.57;;;;;;;17.46;79.96;101889.06;5026738;28;20014;-66
2023/08/11 02:25:58;;;;;;;18.65;14.02;;;;;;;17.45;79.88;101880.19;5031323;28;20049;-66
2023/08/11 02:28:23;;;;;;;18.23;13.50;;;;;;;17.46;79.93;101879.16;5027318;28;20389;-66
2023/08/11 02:30:49;;;;;;;18.10;14.43;;;;;;;17.40;79.78;101871.03;5026961;28;20034;-66
2023/08/11 02:33:18;;;;;;;16.73;13.43;;;;;;;17.23;80.46;101878.47;5023031;28;20483;-66
2023/08/11 02:35:43;;;;;;;19.15;13.85;;;;;;;17.23;80.42;101889.22;5022546;28;20037;-66
2023/08/11 02:38:08;;;;;;;16.38;13.52;;;;;;;17.19;80.80;101895.97;5012404;28;20144;-66
2023/08/11 02:40:35;;;;;;;17.52;14.10;;;;;;;17.17;81.09;101888.13;5015293;28;20025;-66
2023/08/11 02:43:02;;;;;;;19.10;13.82;;;;;;;17.13;81.15;101894.06;5026765;28;20020;-66
2023/08/11 02:45:27;;;;;;;15.75;14.00;;;;;;;17.09;81.38;101898.13;5015119;28;20022;-66
2023/08/11 02:47:52;;;;;;;17.40;13.82;;;;;;;17.08;81.77;101897.31;5028993;28;20556;-66
2023/08/11 02:50:18;;;;;;;15.48;13.82;;;;;;;17.02;82.10;101896.19;5024715;28;20578;-66
2023/08/11 02:52:43;;;;;;;16.63;14.75;;;;;;;16.95;82.27;101899.81;5026453;28;20033;-66
2023/08/11 02:55:09;;;;;;;16.60;14.82;;;;;;;16.92;82.73;101902.88;5023295;28;20499;-66
2023/08/11 02:57:35;;;;;;;21.63;15.43;;;;;;;16.81;82.90;101901.50;5024118;28;20036;-66
2023/08/11 03:00:03;;;;;;;19.90;14.77;;;;;;;16.73;83.27;101906.94;5025525;28;20022;-66
2023/08/11 03:02:29;;;;;;;16.05;13.65;;;;;;;16.76;83.21;101898.50;5022291;28;20028;-66
2023/08/11 03:04:54;;;;;;;22.45;13.23;;;;;;;16.75;83.57;101901.38;5015802;28;20018;-66
2023/08/11 03:07:19;;;;;;;17.20;13.30;;;;;;;16.65;84.10;101893.59;5027811;28;20017;-66
2023/08/11 03:09:44;;;;;;;16.67;13.77;;;;;;;16.66;84.57;101895.28;5023398;28;20391;-66
2023/08/11 03:12:10;;;;;;;15.68;13.48;;;;;;;16.65;84.51;101893.59;5025026;28;20033;-66
2023/08/11 03:14:39;;;;;;;15.95;14.30;;;;;;;16.63;84.67;101877.69;5028642;28;20017;-66
2023/08/11 03:17:05;;;;;;;17.23;15.35;;;;;;;16.63;84.78;101885.72;5028629;28;20121;-66
2023/08/11 03:19:31;;;;;;;16.10;14.40;;;;;;;16.60;84.78;101885.28;5024870;28;20021;-66
2023/08/11 03:21:56;;;;;;;15.90;14.30;;;;;;;16.55;84.89;101875.09;5019295;28;20112;-66
2023/08/11 03:24:22;;;;;;;17.83;14.77;;;;;;;16.49;85.01;101878.53;5027708;28;20098;-66
2023/08/11 03:26:47;;;;;;;17.88;14.25;;;;;;;16.53;84.67;101884.34;5019241;28;20025;-66
2023/08/11 03:29:12;;;;;;;16.73;14.95;;;;;;;16.47;85.02;101885.06;5027948;28;20067;-66
2023/08/11 03:31:37;;;;;;;21.42;16.15;;;;;;;16.39;84.67;101886.81;5021936;28;20017;-66
2023/08/11 03:34:03;;;;;;;17.33;15.05;;;;;;;16.34;84.97;101889.22;5023097;28;20021;-66
2023/08/11 03:36:29;;;;;;;19.08;15.90;;;;;;;16.33;85.19;101887.56;5023744;28;20048;-66
2023/08/11 03:38:54;;;;;;;17.58;15.10;;;;;;;16.34;85.34;101881.16;5023384;28;20084;-66
2023/08/11 03:41:20;;;;;;;19.25;15.82;;;;;;;16.32;85.60;101883.22;5016064;28;20025;-66
2023/08/11 03:43:45;;;;;;;21.60;15.60;;;;;;;16.32;85.64;101887.72;5018304;28;20040;-66
2023/08/11 03:46:11;;;;;;;17.60;15.05;;;;;;;16.30;85.72;101881.72;5016217;28;20111;-66
2023/08/11 03:48:36;;;;;;;20.52;15.68;;;;;;;16.28;85.65;101878.41;5018769;28;20048;-66
2023/08/11 03:51:02;;;;;;;17.30;15.50;;;;;;;16.27;85.92;101872.22;5023541;28;20394;-66
2023/08/11 03:53:27;;;;;;;18.63;15.55;;;;;;;16.27;86.04;101874.06;5022802;28;20057;-66
2023/08/11 03:55:53;;;;;;;21.58;15.98;;;;;;;16.23;86.31;101876.28;5023017;28;20083;-66
2023/08/11 03:58:20;;;;;;;19.92;17.05;;;;;;;16.26;86.06;101875.06;5021074;28;20159;-66
2023/08/11 04:00:46;;;;;;;18.73;15.68;;;;;;;16.24;86.13;101871.75;5019447;28;20368;-66
2023/08/11 04:03:11;;;;;;;19.00;16.38;;;;;;;16.26;86.34;101870.53;5029237;28;20600;-66
2023/08/11 04:05:36;;;;;;;18.77;15.57;;;;;;;16.22;86.40;101866.56;5025081;28;20112;-66
2023/08/11 04:08:04;;;;;;;18.75;16.33;;;;;;;16.24;86.57;101869.06;5029544;28;20025;-66
2023/08/11 04:10:30;;;;;;;17.55;15.15;;;;;;;16.25;86.30;101868.88;5020828;28;20470;-66
2023/08/11 04:12:55;;;;;;;19.15;16.90;;;;;;;16.23;86.58;101876.28;5025296;28;20479;-66
2023/08/11 04:15:21;;;;;;;21.00;17.10;;;;;;;16.22;86.71;101874.59;5015609;28;20029;-66
2023/08/11 04:17:46;;;;;;;19.65;16.30;;;;;;;16.25;86.64;101868.03;5024064;28;20029;-66
2023/08/11 04:20:12;;;;;;;22.33;16.00;;;;;;;16.24;86.82;101874.41;5018881;28;20110;-66
2023/08/11 04:22:41;;;;;;;17.75;15.65;;;;;;;16.20;86.65;101882.00;5020944;28;20029;-66
2023/08/11 04:25:11;;;;;;;21.70;16.23;;;;;;;16.19;86.66;101876.78;5021522;28;20041;-66
2023/08/11 04:27:39;;;;;;;18.35;16.33;;;;;;;16.17;86.76;101873.47;5027986;28;20064;-66
2023/08/11 04:30:05;;;;;;;19.48;16.17;;;;;;;16.19;86.66;101872.28;5018558;28;20029;-66
2023/08/11 04:32:30;;;;;;;19.60;16.13;;;;;;;16.21;86.81;101872.09;5018506;28;20517;-66
2023/08/11 04:34:56;;;;;;;21.88;16.38;;;;;;;16.22;86.83;101877.28;5018764;28;20018;-66
2023/08/11 04:37:21;;;;;;;21.90;16.38;;;;;;;16.22;86.45;101876.47;5028246;28;20026;-66
2023/08/11 04:39:46;;;;;;;20.52;16.02;;;;;;;16.23;86.75;101868.22;5020016;28;20017;-66
2023/08/11 04:42:12;;;;;;;20.30;15.88;;;;;;;16.20;86.78;101865.09;5019423;28;20026;-66
2023/08/11 04:44:38;;;;;;;20.15;16.25;;;;;;;16.20;86.69;101863.25;5023442;28;20576;-66
2023/08/11 04:47:03;;;;;;;24.92;16.70;;;;;;;16.18;86.74;101865.22;5017014;28;20021;-67
2023/08/11 04:49:31;;;;;;;22.70;15.93;;;;;;;16.20;87.01;101860.56;5020559;28;20036;-66
2023/08/11 04:51:57;;;;;;;22.70;16.33;;;;;;;16.22;86.70;101861.19;5013886;28;20028;-66
2023/08/11 04:54:22;;;;;;;20.77;16.75;;;;;;;16.24;86.96;101859.16;5014970;28;20025;-66
2023/08/11 04:56:48;;;;;;;20.50;16.92;;;;;;;16.24;86.88;101856.50;5023225;28;20028;-66
2023/08/11 04:59:14;;;;;;;18.58;16.58;;;;;;;16.24;87.05;101856.50;5021660;28;20038;-67
2023/08/11 05:01:39;;;;;;;24.23;17.55;;;;;;;16.24;87.12;101853.81;5022848;28;20071;-66
2023/08/11 05:04:04;;;;;;;21.58;16.33;;;;;;;16.25;86.94;101854.66;5025485;28;20033;-66
2023/08/11 05:06:31;;;;;;;21.30;16.23;;;;;;;16.27;86.76;101844.56;5018753;28;20378;-67
2023/08/11 05:08:56;;;;;;;22.35;17.13;;;;;;;16.28;87.09;101843.56;5014764;28;20037;-66
2023/08/11 05:11:21;;;;;;;20.42;17.25;;;;;;;16.29;87.17;101846.03;5027938;28;20021;-67
2023/08/11 05:13:46;;;;;;;22.02;16.77;;;;;;;16.32;86.95;101844.84;5023303;28;20034;-66
2023/08/11 05:16:12;;;;;;;23.23;17.05;;;;;;;16.35;87.18;101848.00;5020569;28;20022;-66
2023/08/11 05:18:37;;;;;;;22.55;17.13;;;;;;;16.36;86.96;101843.47;5026798;28;20575;-66
2023/08/11 05:21:05;;;;;;;20.02;16.80;;;;;;;16.41;87.20;101844.56;5027331;28;20032;-66
2023/08/11 05:23:31;;;;;;;22.48;17.63;;;;;;;16.45;87.20;101841.50;5026000;28;20033;-66
2023/08/11 05:25:56;;;;;;;24.50;17.08;;;;;;;16.52;86.98;101842.47;5024290;28;20076;-66
2023/08/11 05:28:22;;;;;;;21.08;17.38;;;;;;;16.55;86.97;101842.09;5029126;28;20097;-66
2023/08/11 05:30:48;;;;;;;21.45;17.95;;;;;;;16.58;87.19;101845.22;5023706;28;20148;-67
2023/08/11 05:33:13;;;;;;;25.13;18.25;;;;;;;16.66;87.24;101837.09;5020931;28;20116;-66
2023/08/11 05:35:41;;;;;;;21.85;17.30;;;;;;;16.71;87.18;101836.53;5017331;28;20559;-66
2023/08/11 05:38:06;;;;;;;24.60;17.58;;;;;;;16.75;87.37;101832.47;5025784;28;20104;-66
2023/08/11 05:40:32;;;;;;;22.48;17.63;;;;;;;16.80;87.34;101835.44;5022574;28;20101;-67
2023/08/11 05:42:57;;;;;;;25.80;17.02;;;;;;;16.84;86.84;101844.78;5027689;28;20021;-67
2023/08/11 05:45:23;;;;;;;21.95;17.70;;;;;;;16.97;87.07;101834.19;5018869;28;20033;-66
2023/08/11 05:47:48;;;;;;;24.45;17.58;;;;;;;17.10;87.37;101840.75;5012300;28;20480;-67
2023/08/11 05:50:13;;;;;;;21.70;17.08;;;;;;;17.14;87.15;101844.72;5021429;28;20548;-67
2023/08/11 05:52:39;;;;;;;22.23;16.92;;;;;;;17.21;87.09;101838.41;5026408;28;20025;-66
2023/08/11 05:55:05;;;;;;;22.05;15.98;;;;;;;17.30;87.31;101839.09;5027573;28;20034;-66
2023/08/11 05:57:30;;;;;;;25.55;16.95;;;;;;;17.35;87.26;101842.06;5024538;28;20028;-66
2023/08/11 05:59:56;;;;;;;23.83;16.42;;;;;;;17.37;86.96;101840.03;5019547;28;20478;-66
2023/08/11 06:02:21;;;;;;;24.98;16.15;;;;;;;17.42;86.69;101840.28;5021525;28;20529;-66
2023/08/11 06:04:47;;;;;;;23.13;16.27;;;;;;;17.50;86.60;101842.84;5029489;28;20021;-66
2023/08/11 06:07:13;;;;;;;21.85;16.33;;;;;;;17.47;86.23;101843.22;5021767;28;20064;-66
2023/08/11 06:09:39;;;;;;;20.50;15.55;;;;;;;17.44;86.07;101846.28;5027901;28;20049;-66
2023/08/11 06:12:04;;;;;;;22.88;15.88;;;;;;;17.42;86.07;101839.44;5024258;28;20032;-67
2023/08/11 06:14:30;;;;;;;18.90;15.30;;;;;;;17.40;85.75;101841.50;5026179;28;20033;-66
2023/08/11 06:16:55;;;;;;;22.20;15.45;;;;;;;17.42;85.63;101842.97;5021718;28;20028;-66
2023/08/11 06:19:20;;;;;;;20.17;16.35;;;;;;;17.47;85.81;101845.91;5011717;28;20049;-66
2023/08/11 06:21:46;;;;;;;21.85;15.77;;;;;;;17.50;85.57;101847.38;5016480;28;20029;-67
2023/08/11 06:24:12;;;;;;;24.77;15.57;;;;;;;17.53;85.68;101853.19;5016812;28;20442;-66
2023/08/11 06:26:37;;;;;;;20.45;14.98;;;;;;;17.58;85.49;101850.75;5015271;28;20097;-66
2023/08/11 06:29:04;;;;;;;25.13;15.77;;;;;;;17.59;85.67;101852.41;5020235;28;20108;-66
2023/08/11 06:31:30;;;;;;;19.40;14.90;;;;;;;17.63;85.68;101853.69;5018309;28;20034;-67
2023/08/11 06:33:55;;;;;;;20.08;15.18;;;;;;;17.67;85.57;101856.03;5011209;28;20025;-67
2023/08/11 06:36:20;;;;;;;20.33;16.52;;;;;;;17.73;85.47;101848.03;5020218;28;20548;-67
2023/08/11 06:38:46;;;;;;;22.45;16.00;;;;;;;17.79;85.73;101852.63;5013962;28;20064;-67
2023/08/11 06:41:11;;;;;;;21.45;14.27;;;;;;;17.83;85.44;101850.41;5020649;28;20021;-66
2023/08/11 06:43:38;;;;;;;19.42;14.00;;;;;;;17.83;85.02;101858.47;5014193;28;20375;-66
2023/08/11 06:46:04;;;;;;;22.02;14.52;;;;;;;17.84;85.21;101862.81;5015387;28;20088;-67
2023/08/11 06:48:29;;;;;;;19.52;14.75;;;;;;;17.85;85.07;101861.78;5012600;28;20025;-67
2023/08/11 06:50:56;;;;;;;19.63;14.93;;;;;;;17.92;85.57;101858.13;5021652;28;20031;-67
2023/08/11 06:53:21;;;;;;;20.10;15.32;;;;;;;17.98;85.89;101863.75;5012310;28;20034;-66
2023/08/11 06:55:47;;;;;;;19.60;14.95;;;;;;;17.99;85.82;101860.88;5019029;28;20087;-66
2023/08/11 06:58:12;;;;;;;21.52;14.77;;;;;;;18.04;85.80;101871.03;5028509;28;20112;-66
2023/08/11 07:00:37;;;;;;;21.30;14.25;;;;;;;18.06;85.64;101869.81;5028963;28;20592;-66
2023/08/11 07:03:03;;;;;;;21.20;13.55;;;;;;;18.11;85.73;101863.84;5028167;28;20028;-67
2023/08/11 07:05:28;;;;;;;19.75;13.43;;;;;;;18.15;85.42;101871.34;5024537;28;20029;-67
2023/08/11 07:07:54;;;;;;;15.15;12.73;;;;;;;18.23;85.11;101871.22;5022257;28;20026;-66
2023/08/11 07:10:19;;;;;;;16.73;13.38;;;;;;;18.33;84.88;101872.72;5027141;28;20486;-66
2023/08/11 07:12:44;;;;;;;19.30;12.40;;;;;;;18.40;85.20;101865.50;5030691;28;20064;-66
2023/08/11 07:15:09;;;;;;;18.42;12.43;;;;;;;18.47;85.05;101871.75;5024240;28;20091;-66
2023/08/11 07:17:35;;;;;;;15.60;11.85;;;;;;;18.55;84.65;101868.94;5026157;28;20021;-66
2023/08/11 07:20:00;;;;;;;20.23;12.63;;;;;;;18.64;84.29;101866.94;5023706;28;20063;-66
2023/08/11 07:22:25;;;;;;;16.90;11.77;;;;;;;18.74;83.99;101872.78;5028613;28;20033;-67
2023/08/11 07:24:50;;;;;;;15.52;11.30;;;;;;;18.82;83.65;101872.63;5027231;28;20117;-66
2023/08/11 07:27:16;;;;;;;16.70;11.88;;;;;;;18.93;83.52;101876.59;5027843;28;20507;-66
2023/08/11 07:29:41;;;;;;;19.50;11.10;;;;;;;19.01;83.64;101871.88;5031794;28;20019;-67
2023/08/11 07:32:06;;;;;;;17.67;10.63;;;;;;;19.11;83.26;101876.91;5025855;28;20021;-67
2023/08/11 07:34:31;;;;;;;15.15;10.38;;;;;;;19.20;82.96;101875.69;5020440;28;20022;-66
2023/08/11 07:36:57;;;;;;;15.68;10.40;;;;;;;19.29;82.65;101866.38;5018886;28;20056;-66
2023/08/11 07:39:22;;;;;;;17.23;11.30;;;;;;;19.41;82.93;101870.16;5018943;28;20087;-67
2023/08/11 07:41:48;;;;;;;15.88;8.93;;;;;;;19.50;82.34;101868.91;5025627;28;20100;-66
2023/08/11 07:44:14;;;;;;;16.73;10.52;;;;;;;19.62;82.28;101865.66;5024050;28;20021;-66
2023/08/11 07:46:40;;;;;;;15.57;10.00;;;;;;;19.73;82.04;101873.97;5014624;28;20034;-66
2023/08/11 07:49:05;;;;;;;14.77;10.15;;;;;;;19.82;81.59;101877.28;5028299;28;20032;-67
2023/08/11 07:51:30;;;;;;;13.88;8.80;;;;;;;19.88;80.94;101868.38;5028735;28;20799;-66
2023/08/11 07:53:55;;;;;;;14.98;9.40;;;;;;;19.99;80.96;101885.81;5025304;28;20082;-66
2023/08/11 07:56:21;;;;;;;16.52;8.40;;;;;;;20.12;81.52;101872.31;5029886;28;20031;-67
2023/08/11 07:58:47;;;;;;;13.25;8.07;;;;;;;20.25;81.50;101875.00;5024804;28;20033;-67
2023/08/11 08:01:12;;;;;;;9.95;7.25;;;;;;;20.37;80.83;101873.31;5020279;28;20025;-66
2023/08/11 08:03:38;;;;;;;11.25;6.55;;;;;;;20.46;80.00;101875.81;5025444;28;20029;-66
2023/08/11 08:06:04;;;;;;;9.93;7.32;;;;;;;20.55;79.51;101874.59;5022057;28;20018;-66
2023/08/11 08:08:31;;;;;;;8.95;6.38;;;;;;;20.60;79.06;101878.28;5019425;28;20022;-67
2023/08/11 08:10:56;;;;;;;10.23;6.22;;;;;;;20.68;78.68;101879.94;5026447;28;20570;-66
2023/08/11 08:13:21;;;;;;;9.45;5.45;;;;;;;20.78;77.75;101871.38;5017642;28;20128;-66
2023/08/11 08:15:47;;;;;;;9.93;5.55;;;;;;;20.97;76.91;101870.47;5019478;28;20018;-66
2023/08/11 08:18:12;;;;;;;7.68;5.28;;;;;;;21.07;76.66;101875.41;5024596;28;20034;-66
2023/08/11 08:20:37;;;;;;;11.52;6.40;;;;;;;21.14;75.81;101871.66;5019395;28;20035;-67
2023/08/11 08:23:03;;;;;;;8.82;5.28;;;;;;;21.22;75.34;101876.81;5020368;28;20022;-68
2023/08/11 08:25:28;;;;;;;11.65;8.18;;;;;;;21.33;75.88;101870.75;5014890;28;20053;-67
2023/08/11 08:27:53;;;;;;;9.15;5.35;;;;;;;21.39;74.96;101868.22;5021275;28;20053;-67
2023/08/11 08:30:19;;;;;;;8.85;4.63;;;;;;;21.47;74.90;101873.38;5016712;28;20033;-67
2023/08/11 08:32:45;;;;;;;7.63;5.15;;;;;;;21.52;73.68;101874.38;5019473;28;20058;-67
2023/08/11 08:35:10;;;;;;;6.88;4.63;;;;;;;21.60;72.86;101870.59;5021529;28;20059;-67
2023/08/11 08:37:35;;;;;;;8.23;4.78;;;;;;;21.69;72.01;101876.56;5019304;28;20057;-67
2023/08/11 08:40:01;;;;;;;7.88;4.53;;;;;;;21.81;71.67;101875.63;5015423;28;20030;-67
2023/08/11 08:42:27;;;;;;;8.10;4.85;;;;;;;22.01;72.05;101877.38;5021062;28;20032;-67
2023/08/11 08:44:53;;;;;;;6.85;4.78;;;;;;;22.10;72.25;101876.88;5017103;28;20039;-67
2023/08/11 08:47:20;;;;;;;8.20;4.72;;;;;;;22.17;71.22;101879.53;5023344;28;20029;-67
2023/08/11 08:49:48;;;;;;;10.32;4.80;;;;;;;22.28;70.88;101878.81;5019529;28;20029;-67
2023/08/11 08:52:13;;;;;;;6.85;4.30;;;;;;;22.43;70.28;101879.28;5018772;28;20052;-66
2023/08/11 08:54:39;;;;;;;8.23;5.13;;;;;;;22.54;70.96;101878.53;5023679;28;20546;-66
2023/08/11 08:57:06;;;;;;;6.88;4.47;;;;;;;22.64;70.69;101883.44;5021384;28;20057;-66
2023/08/11 08:59:32;;;;;;;7.75;4.40;;;;;;;22.74;69.70;101878.31;5027113;28;20021;-66
2023/08/11 09:01:58;;;;;;;5.28;4.32;;;;;;;22.81;69.45;101878.25;5027138;28;20025;-66
2023/08/11 09:04:25;;;;;;;8.02;4.20;;;;;;;22.91;68.72;101875.03;5021122;28;20037;-66
2023/08/11 09:06:51;;;;;;;7.43;4.03;;;;;;;23.05;67.98;101874.63;5022822;28;20066;-65
2023/08/11 09:09:16;;;;;;;8.43;4.80;;;;;;;23.23;67.68;101868.38;5016442;28;20025;-67
2023/08/11 09:11:43;;;;;;;10.02;4.40;;;;;;;23.38;67.77;101874.19;5019899;28;20364;-67
2023/08/11 09:14:09;;;;;;;8.27;3.95;;;;;;;23.47;66.19;101866.56;5026562;28;20030;-67
2023/08/11 09:16:36;;;;;;;7.43;3.85;;;;;;;23.59;65.11;101870.16;5021935;28;20017;-66
2023/08/11 09:19:03;;;;;;;11.18;5.50;;;;;;;23.73;65.32;101870.78;5025839;28;20041;-67
2023/08/11 09:21:29;;;;;;;7.38;4.00;;;;;;;23.87;65.47;101877.66;5022553;28;20025;-67
2023/08/11 09:23:55;;;;;;;6.47;4.00;;;;;;;23.94;64.87;101872.94;5030481;28;20021;-69
2023/08/11 09:26:21;;;;;;;6.18;4.13;;;;;;;24.15;65.34;101874.25;5019870;28;20055;-67
2023/08/11 09:28:47;;;;;;;7.45;4.20;;;;;;;24.24;64.41;101872.84;5025065;28;20028;-67
2023/08/11 09:31:12;;;;;;;8.48;3.88;;;;;;;24.34;63.03;101867.69;5021566;28;20107;-67
2023/08/11 09:33:38;;;;;;;8.38;4.00;;;;;;;24.58;63.55;101862.25;5019849;28;20056;-67
2023/08/11 09:36:04;;;;;;;7.57;3.80;;;;;;;24.78;64.02;101867.25;5023212;28;20406;-67
2023/08/11 09:38:30;;;;;;;6.90;3.90;;;;;;;24.82;62.44;101866.53;5016730;28;20155;-67
2023/08/11 09:41:05;;;;;;;8.43;3.50;;;;;;;24.94;63.30;101861.06;5020135;28;20899;-67
2023/08/11 09:43:30;;;;;;;7.82;3.58;;;;;;;24.95;63.03;101858.13;5017913;28;20022;-67
2023/08/11 09:45:59;;;;;;;6.88;3.70;;;;;;;24.88;62.66;101852.00;5018953;28;20028;-67
2023/08/11 09:48:25;;;;;;;5.68;3.38;;;;;;;24.81;61.80;101855.91;5011501;28;20034;-68
2023/08/11 09:50:51;;;;;;;18.33;12.50;;;;;;;24.75;60.84;101863.13;5013819;28;20433;-66
2023/08/11 09:53:18;;;;;;;5.32;3.70;;;;;;;24.79;61.92;101860.75;5024181;28;20113;-65
2023/08/11 09:55:45;;;;;;;8.75;3.97;;;;;;;24.82;62.08;101862.97;5020950;28;20053;-66
2023/08/11 09:58:13;;;;;;;6.32;3.83;;;;;;;25.01;62.17;101867.22;5025502;28;20061;-67
2023/08/11 10:00:40;;;;;;;6.63;3.60;;;;;;;25.15;62.06;101867.75;5016143;28;20022;-67
2023/08/11 10:03:08;;;;;;;6.55;3.60;;;;;;;25.29;61.34;101866.41;5024558;28;20018;-67
2023/08/11 10:05:37;;;;;;;4.40;2.97;;;;;;;25.31;61.53;101869.69;5019595;28;20060;-66
2023/08/11 10:08:05;;;;;;;6.57;3.08;;;;;;;25.46;61.68;101866.44;5013752;28;20053;-65
2023/08/11 10:10:31;;;;;;;6.90;3.55;;;;;;;25.59;61.91;101874.28;5016613;28;20483;-66
2023/08/11 10:13:15;;;;;;;6.18;3.47;;;;;;;25.66;61.19;101874.94;5025728;28;20487;-67
2023/08/11 10:15:41;;;;;;;5.40;3.30;;;;;;;25.69;60.79;101884.53;5022090;28;20029;-66
2023/08/11 10:18:07;;;;;;;8.80;3.22;;;;;;;25.78;59.19;101870.31;5023292;28;20018;-66
2023/08/11 10:20:32;;;;;;;3.60;2.90;;;;;;;25.80;58.54;101870.06;5020964;28;20067;-66
2023/08/11 10:23:01;;;;;;;6.20;3.17;;;;;;;25.98;58.42;101872.50;5020228;28;20386;-67
2023/08/11 10:25:27;;;;;;;4.07;3.03;;;;;;;26.10;57.86;101865.09;5022728;28;20028;-66
2023/08/11 10:27:54;;;;;;;6.38;2.83;;;;;;;26.29;57.91;101871.06;5026482;28;20042;-66
2023/08/11 10:30:20;;;;;;;9.57;5.88;;;;;;;26.42;58.44;101861.78;5025112;28;20152;-68
2023/08/11 10:32:45;;;;;;;4.00;3.10;;;;;;;26.62;58.00;101861.22;5018572;28;22315;-66
2023/08/11 10:35:18;;;;;;;5.28;2.70;;;;;;;26.70;56.82;101858.88;5021515;28;20549;-64
2023/08/11 10:37:44;;;;;;;3.55;2.45;;;;;;;26.76;56.60;101851.59;5025430;28;20475;-71
2023/08/11 10:40:10;;;;;;;4.20;2.65;;;;;;;26.85;55.19;101856.31;5021833;28;20033;-68
2023/08/11 10:42:36;;;;;;;7.03;3.30;;;;;;;26.76;54.53;101863.31;5018917;28;20061;-66
2023/08/11 10:45:13;;;;;;;5.22;3.15;;;;;;;26.80;54.63;101858.16;5014898;28;20025;-67
2023/08/11 10:47:50;;;;;;;3.60;2.35;;;;;;;26.84;53.85;101870.22;5025189;28;20052;-66
2023/08/11 10:50:17;;;;;;;4.32;2.33;;;;;;;26.87;53.94;101861.53;5027433;28;20029;-66
2023/08/11 10:52:42;;;;;;;11.80;3.95;;;;;;;27.03;54.66;101851.66;5021656;28;20029;-67
2023/08/11 10:55:09;;;;;;;6.30;3.08;;;;;;;27.23;54.87;101861.97;5021846;28;20033;-67
2023/08/11 10:57:35;;;;;;;3.47;2.47;;;;;;;27.37;53.61;101861.28;5024119;28;20021;-67
2023/08/11 11:00:00;;;;;;;5.15;2.47;;;;;;;27.41;53.30;101853.41;5020045;28;20140;-67
2023/08/11 11:02:25;;;;;;;7.05;2.63;;;;;;;27.40;52.86;101862.69;5022743;28;20037;-67
2023/08/11 11:04:52;;;;;;;5.03;2.70;;;;;;;27.29;53.09;101847.31;5028372;28;20025;-67
2023/08/11 11:07:21;;;;;;;4.78;2.80;;;;;;;27.45;52.57;101846.34;5023811;28;20033;-67
2023/08/11 11:09:47;;;;;;;5.18;2.83;;;;;;;27.67;53.27;101849.03;5018066;28;20021;-67